sensor_id;sensor_type;location;lat;lon;timestamp;P1;durP1;ratioP1;P2;durP2;ratioP2
11747;SDS011;5931;48.832;9.072;2024-03-08T00:02:03;31.40;;;15.02;;
11747;SDS011;5931;48.832;9.072;2024-03-08T00:04:29;24.25;;;12.90;;
11747;SDS011;5931;48.832;9.072;2024-03-08T00:06:55;32.23;;;13.27;;
11747;SDS011;5931;48.832;9.072;2024-03-08T00:09:20;27.20;;;13.17;;
11747;SDS011;5931;48.832;9.072;2024-03-08T00:11:46;28.90;;;12.37;;
11747;SDS011;5931;48.832;9.072;2024-03-08T00:14:15;30.20;;;13.15;;
11747;SDS011;5931;48.832;9.072;2024-03-08T00:16:41;28.58;;;11.70;;
11747;SDS011;5931;48.832;9.072;2024-03-08T00:19:09;24.85;;;11.57;;
11747;SDS011;5931;48.832;9.072;2024-03-08T00:21:35;28.95;;;13.48;;
11747;SDS011;5931;48.832;9.072;2024-03-08T00:24:01;29.43;;;13.87;;
11747;SDS011;5931;48.832;9.072;2024-03-08T00:26:27;24.38;;;12.65;;
11747;SDS011;5931;48.832;9.072;2024-03-08T00:28:54;32.53;;;14.52;;
11747;SDS011;5931;48.832;9.072;2024-03-08T00:31:19;29.60;;;13.33;;
11747;SDS011;5931;48.832;9.072;2024-03-08T00:33:45;27.17;;;12.10;;
11747;SDS011;5931;48.832;9.072;2024-03-08T00:36:11;33.15;;;13.48;;
11747;SDS011;5931;48.832;9.072;2024-03-08T00:38:37;25.43;;;12.03;;
11747;SDS011;5931;48.832;9.072;2024-03-08T00:41:03;26.87;;;12.53;;
11747;SDS011;5931;48.832;9.072;2024-03-08T00:43:29;28.50;;;14.20;;
11747;SDS011;5931;48.832;9.072;2024-03-08T00:45:57;26.17;;;13.45;;
11747;SDS011;5931;48.832;9.072;2024-03-08T00:48:23;27.27;;;11.93;;
11747;SDS011;5931;48.832;9.072;2024-03-08T00:50:49;27.35;;;12.65;;
11747;SDS011;5931;48.832;9.072;2024-03-08T00:53:15;31.60;;;14.30;;
11747;SDS011;5931;48.832;9.072;2024-03-08T00:55:41;26.48;;;11.90;;
11747;SDS011;5931;48.832;9.072;2024-03-08T00:58:07;28.45;;;13.43;;
11747;SDS011;5931;48.832;9.072;2024-03-08T01:00:34;33.28;;;14.35;;
11747;SDS011;5931;48.832;9.072;2024-03-08T01:03:00;29.47;;;13.60;;
11747;SDS011;5931;48.832;9.072;2024-03-08T01:05:26;29.90;;;13.77;;
11747;SDS011;5931;48.832;9.072;2024-03-08T01:07:51;27.10;;;14.07;;
11747;SDS011;5931;48.832;9.072;2024-03-08T01:10:17;28.00;;;12.13;;
11747;SDS011;5931;48.832;9.072;2024-03-08T01:12:43;24.57;;;12.17;;
11747;SDS011;5931;48.832;9.072;2024-03-08T01:15:10;34.13;;;13.85;;
11747;SDS011;5931;48.832;9.072;2024-03-08T01:17:36;30.17;;;14.10;;
11747;SDS011;5931;48.832;9.072;2024-03-08T01:20:02;27.02;;;13.10;;
11747;SDS011;5931;48.832;9.072;2024-03-08T01:22:29;25.52;;;13.23;;
11747;SDS011;5931;48.832;9.072;2024-03-08T01:24:55;29.90;;;13.40;;
11747;SDS011;5931;48.832;9.072;2024-03-08T01:27:21;30.38;;;13.63;;
11747;SDS011;5931;48.832;9.072;2024-03-08T01:29:47;32.40;;;13.80;;
11747;SDS011;5931;48.832;9.072;2024-03-08T01:32:13;29.33;;;13.60;;
11747;SDS011;5931;48.832;9.072;2024-03-08T01:34:40;34.65;;;13.75;;
11747;SDS011;5931;48.832;9.072;2024-03-08T01:37:06;32.40;;;14.17;;
11747;SDS011;5931;48.832;9.072;2024-03-08T01:39:32;27.70;;;12.88;;
11747;SDS011;5931;48.832;9.072;2024-03-08T01:41:58;33.27;;;13.10;;
11747;SDS011;5931;48.832;9.072;2024-03-08T01:44:24;30.67;;;14.30;;
11747;SDS011;5931;48.832;9.072;2024-03-08T01:46:50;28.53;;;12.23;;
11747;SDS011;5931;48.832;9.072;2024-03-08T01:49:19;27.80;;;14.30;;
11747;SDS011;5931;48.832;9.072;2024-03-08T01:51:47;26.02;;;12.25;;
11747;SDS011;5931;48.832;9.072;2024-03-08T01:54:15;30.08;;;13.55;;
11747;SDS011;5931;48.832;9.072;2024-03-08T01:56:43;39.30;;;15.30;;
11747;SDS011;5931;48.832;9.072;2024-03-08T01:59:09;27.43;;;12.20;;
11747;SDS011;5931;48.832;9.072;2024-03-08T02:01:35;29.17;;;13.27;;
11747;SDS011;5931;48.832;9.072;2024-03-08T02:04:01;28.80;;;12.83;;
11747;SDS011;5931;48.832;9.072;2024-03-08T02:06:26;31.03;;;14.10;;
11747;SDS011;5931;48.832;9.072;2024-03-08T02:08:52;33.17;;;14.10;;
11747;SDS011;5931;48.832;9.072;2024-03-08T02:11:18;29.55;;;13.20;;
11747;SDS011;5931;48.832;9.072;2024-03-08T02:13:46;31.35;;;13.13;;
11747;SDS011;5931;48.832;9.072;2024-03-08T02:16:12;34.28;;;14.10;;
11747;SDS011;5931;48.832;9.072;2024-03-08T02:18:38;31.10;;;13.23;;
11747;SDS011;5931;48.832;9.072;2024-03-08T02:21:05;27.02;;;12.88;;
11747;SDS011;5931;48.832;9.072;2024-03-08T02:23:33;28.92;;;12.73;;
11747;SDS011;5931;48.832;9.072;2024-03-08T02:25:58;30.30;;;12.32;;
11747;SDS011;5931;48.832;9.072;2024-03-08T02:28:25;30.25;;;12.95;;
11747;SDS011;5931;48.832;9.072;2024-03-08T02:30:51;32.30;;;13.37;;
11747;SDS011;5931;48.832;9.072;2024-03-08T02:33:19;31.35;;;13.23;;
11747;SDS011;5931;48.832;9.072;2024-03-08T02:35:46;32.88;;;13.52;;
11747;SDS011;5931;48.832;9.072;2024-03-08T02:38:13;33.60;;;13.45;;
11747;SDS011;5931;48.832;9.072;2024-03-08T02:40:44;34.10;;;12.90;;
11747;SDS011;5931;48.832;9.072;2024-03-08T02:43:14;26.42;;;12.57;;
11747;SDS011;5931;48.832;9.072;2024-03-08T02:45:41;39.47;;;13.63;;
11747;SDS011;5931;48.832;9.072;2024-03-08T02:48:07;30.45;;;12.85;;
11747;SDS011;5931;48.832;9.072;2024-03-08T02:50:33;27.70;;;11.98;;
11747;SDS011;5931;48.832;9.072;2024-03-08T02:53:03;25.23;;;12.00;;
11747;SDS011;5931;48.832;9.072;2024-03-08T02:55:29;32.10;;;13.20;;
11747;SDS011;5931;48.832;9.072;2024-03-08T02:57:55;39.35;;;15.68;;
11747;SDS011;5931;48.832;9.072;2024-03-08T03:00:22;34.53;;;15.10;;
11747;SDS011;5931;48.832;9.072;2024-03-08T03:02:49;35.58;;;14.80;;
11747;SDS011;5931;48.832;9.072;2024-03-08T03:05:22;29.90;;;13.25;;
11747;SDS011;5931;48.832;9.072;2024-03-08T03:07:48;27.30;;;11.93;;
11747;SDS011;5931;48.832;9.072;2024-03-08T03:10:16;29.83;;;12.75;;
11747;SDS011;5931;48.832;9.072;2024-03-08T03:12:42;36.38;;;13.43;;
11747;SDS011;5931;48.832;9.072;2024-03-08T03:15:08;26.48;;;11.45;;
11747;SDS011;5931;48.832;9.072;2024-03-08T03:17:35;32.40;;;14.77;;
11747;SDS011;5931;48.832;9.072;2024-03-08T03:20:01;32.73;;;14.70;;
11747;SDS011;5931;48.832;9.072;2024-03-08T03:22:34;36.60;;;14.50;;
11747;SDS011;5931;48.832;9.072;2024-03-08T03:25:00;33.07;;;14.10;;
11747;SDS011;5931;48.832;9.072;2024-03-08T03:27:26;30.07;;;13.13;;
11747;SDS011;5931;48.832;9.072;2024-03-08T03:29:51;31.50;;;15.27;;
11747;SDS011;5931;48.832;9.072;2024-03-08T03:32:17;25.57;;;12.70;;
11747;SDS011;5931;48.832;9.072;2024-03-08T03:34:46;29.75;;;10.95;;
11747;SDS011;5931;48.832;9.072;2024-03-08T03:37:12;28.77;;;12.40;;
11747;SDS011;5931;48.832;9.072;2024-03-08T03:39:38;26.50;;;11.77;;
11747;SDS011;5931;48.832;9.072;2024-03-08T03:42:14;29.95;;;12.32;;
11747;SDS011;5931;48.832;9.072;2024-03-08T03:44:43;28.38;;;12.25;;
11747;SDS011;5931;48.832;9.072;2024-03-08T03:47:10;31.17;;;15.35;;
11747;SDS011;5931;48.832;9.072;2024-03-08T03:49:36;32.47;;;13.27;;
11747;SDS011;5931;48.832;9.072;2024-03-08T03:52:02;26.83;;;13.30;;
11747;SDS011;5931;48.832;9.072;2024-03-08T03:54:29;30.05;;;11.85;;
11747;SDS011;5931;48.832;9.072;2024-03-08T03:56:56;32.22;;;12.93;;
11747;SDS011;5931;48.832;9.072;2024-03-08T03:59:22;30.30;;;13.07;;
11747;SDS011;5931;48.832;9.072;2024-03-08T04:01:48;24.93;;;10.70;;
11747;SDS011;5931;48.832;9.072;2024-03-08T04:04:14;33.08;;;14.05;;
11747;SDS011;5931;48.832;9.072;2024-03-08T04:06:40;29.42;;;11.60;;
11747;SDS011;5931;48.832;9.072;2024-03-08T04:09:07;32.60;;;13.65;;
11747;SDS011;5931;48.832;9.072;2024-03-08T04:11:33;26.83;;;12.20;;
11747;SDS011;5931;48.832;9.072;2024-03-08T04:13:59;32.73;;;13.87;;
11747;SDS011;5931;48.832;9.072;2024-03-08T04:16:24;26.50;;;12.03;;
11747;SDS011;5931;48.832;9.072;2024-03-08T04:18:51;23.95;;;13.27;;
11747;SDS011;5931;48.832;9.072;2024-03-08T04:21:17;27.05;;;13.48;;
11747;SDS011;5931;48.832;9.072;2024-03-08T04:23:44;26.35;;;13.40;;
11747;SDS011;5931;48.832;9.072;2024-03-08T04:26:10;33.43;;;13.40;;
11747;SDS011;5931;48.832;9.072;2024-03-08T04:28:36;21.65;;;10.75;;
11747;SDS011;5931;48.832;9.072;2024-03-08T04:31:05;36.00;;;13.40;;
11747;SDS011;5931;48.832;9.072;2024-03-08T04:33:31;32.75;;;14.45;;
11747;SDS011;5931;48.832;9.072;2024-03-08T04:35:57;27.67;;;12.35;;
11747;SDS011;5931;48.832;9.072;2024-03-08T04:38:23;26.00;;;12.53;;
11747;SDS011;5931;48.832;9.072;2024-03-08T04:40:50;26.48;;;11.48;;
11747;SDS011;5931;48.832;9.072;2024-03-08T04:43:16;27.53;;;14.30;;
11747;SDS011;5931;48.832;9.072;2024-03-08T04:45:44;28.88;;;12.38;;
11747;SDS011;5931;48.832;9.072;2024-03-08T04:48:10;32.78;;;13.85;;
11747;SDS011;5931;48.832;9.072;2024-03-08T04:50:36;24.30;;;10.85;;
11747;SDS011;5931;48.832;9.072;2024-03-08T04:53:03;23.40;;;11.20;;
11747;SDS011;5931;48.832;9.072;2024-03-08T04:55:33;23.65;;;10.82;;
11747;SDS011;5931;48.832;9.072;2024-03-08T04:57:59;33.88;;;11.65;;
11747;SDS011;5931;48.832;9.072;2024-03-08T05:00:25;27.03;;;11.70;;
11747;SDS011;5931;48.832;9.072;2024-03-08T05:02:51;27.73;;;10.30;;
11747;SDS011;5931;48.832;9.072;2024-03-08T05:05:18;26.48;;;13.05;;
11747;SDS011;5931;48.832;9.072;2024-03-08T05:07:44;21.17;;;10.48;;
11747;SDS011;5931;48.832;9.072;2024-03-08T05:10:10;24.77;;;10.52;;
11747;SDS011;5931;48.832;9.072;2024-03-08T05:12:36;27.47;;;12.53;;
11747;SDS011;5931;48.832;9.072;2024-03-08T05:15:05;29.15;;;12.35;;
11747;SDS011;5931;48.832;9.072;2024-03-08T05:17:32;24.52;;;11.98;;
11747;SDS011;5931;48.832;9.072;2024-03-08T05:19:58;20.30;;;10.87;;
11747;SDS011;5931;48.832;9.072;2024-03-08T05:22:24;28.00;;;13.53;;
11747;SDS011;5931;48.832;9.072;2024-03-08T05:24:51;31.95;;;12.02;;
11747;SDS011;5931;48.832;9.072;2024-03-08T05:27:17;32.70;;;14.50;;
11747;SDS011;5931;48.832;9.072;2024-03-08T05:29:42;29.70;;;13.63;;
11747;SDS011;5931;48.832;9.072;2024-03-08T05:32:08;33.27;;;14.40;;
11747;SDS011;5931;48.832;9.072;2024-03-08T05:34:35;31.90;;;14.85;;
11747;SDS011;5931;48.832;9.072;2024-03-08T05:37:01;27.43;;;11.97;;
11747;SDS011;5931;48.832;9.072;2024-03-08T05:39:27;28.77;;;13.15;;
11747;SDS011;5931;48.832;9.072;2024-03-08T05:41:52;30.60;;;12.87;;
11747;SDS011;5931;48.832;9.072;2024-03-08T05:44:20;23.77;;;13.15;;
11747;SDS011;5931;48.832;9.072;2024-03-08T05:46:46;26.77;;;13.37;;
11747;SDS011;5931;48.832;9.072;2024-03-08T05:49:11;33.47;;;13.80;;
11747;SDS011;5931;48.832;9.072;2024-03-08T05:51:39;25.65;;;12.07;;
11747;SDS011;5931;48.832;9.072;2024-03-08T05:54:09;25.83;;;12.60;;
11747;SDS011;5931;48.832;9.072;2024-03-08T05:56:36;32.58;;;14.75;;
11747;SDS011;5931;48.832;9.072;2024-03-08T05:59:03;31.73;;;13.90;;
11747;SDS011;5931;48.832;9.072;2024-03-08T06:01:29;25.33;;;13.32;;
11747;SDS011;5931;48.832;9.072;2024-03-08T06:03:56;34.25;;;14.45;;
11747;SDS011;5931;48.832;9.072;2024-03-08T06:06:22;30.80;;;14.98;;
11747;SDS011;5931;48.832;9.072;2024-03-08T06:08:49;31.08;;;13.57;;
11747;SDS011;5931;48.832;9.072;2024-03-08T06:11:15;33.90;;;15.07;;
11747;SDS011;5931;48.832;9.072;2024-03-08T06:13:46;33.47;;;14.50;;
11747;SDS011;5931;48.832;9.072;2024-03-08T06:16:12;33.67;;;13.95;;
11747;SDS011;5931;48.832;9.072;2024-03-08T06:18:38;32.80;;;14.17;;
11747;SDS011;5931;48.832;9.072;2024-03-08T06:21:04;30.35;;;12.52;;
11747;SDS011;5931;48.832;9.072;2024-03-08T06:23:34;32.15;;;12.00;;
11747;SDS011;5931;48.832;9.072;2024-03-08T06:26:06;39.05;;;14.30;;
11747;SDS011;5931;48.832;9.072;2024-03-08T06:28:32;34.13;;;14.70;;
11747;SDS011;5931;48.832;9.072;2024-03-08T06:31:00;34.55;;;15.07;;
11747;SDS011;5931;48.832;9.072;2024-03-08T06:33:26;32.85;;;14.48;;
11747;SDS011;5931;48.832;9.072;2024-03-08T06:35:55;30.35;;;14.73;;
11747;SDS011;5931;48.832;9.072;2024-03-08T06:38:23;28.33;;;12.77;;
11747;SDS011;5931;48.832;9.072;2024-03-08T06:40:49;36.70;;;14.35;;
11747;SDS011;5931;48.832;9.072;2024-03-08T06:43:16;33.97;;;15.63;;
11747;SDS011;5931;48.832;9.072;2024-03-08T06:45:46;34.55;;;14.93;;
11747;SDS011;5931;48.832;9.072;2024-03-08T06:48:16;43.05;;;16.88;;
11747;SDS011;5931;48.832;9.072;2024-03-08T06:50:45;42.80;;;15.73;;
11747;SDS011;5931;48.832;9.072;2024-03-08T06:53:12;34.67;;;13.50;;
11747;SDS011;5931;48.832;9.072;2024-03-08T06:55:38;39.30;;;15.23;;
11747;SDS011;5931;48.832;9.072;2024-03-08T06:58:05;40.65;;;16.10;;
11747;SDS011;5931;48.832;9.072;2024-03-08T07:00:36;42.60;;;15.90;;
11747;SDS011;5931;48.832;9.072;2024-03-08T07:03:02;39.80;;;15.52;;
11747;SDS011;5931;48.832;9.072;2024-03-08T07:05:32;34.03;;;14.75;;
11747;SDS011;5931;48.832;9.072;2024-03-08T07:07:57;41.50;;;17.10;;
11747;SDS011;5931;48.832;9.072;2024-03-08T07:10:23;35.87;;;15.67;;
11747;SDS011;5931;48.832;9.072;2024-03-08T07:12:53;43.65;;;18.77;;
11747;SDS011;5931;48.832;9.072;2024-03-08T07:15:19;38.50;;;15.33;;
11747;SDS011;5931;48.832;9.072;2024-03-08T07:17:46;36.88;;;15.68;;
11747;SDS011;5931;48.832;9.072;2024-03-08T07:20:12;32.60;;;15.43;;
11747;SDS011;5931;48.832;9.072;2024-03-08T07:22:40;33.15;;;15.43;;
11747;SDS011;5931;48.832;9.072;2024-03-08T07:25:06;38.37;;;15.40;;
11747;SDS011;5931;48.832;9.072;2024-03-08T07:27:33;42.55;;;18.00;;
11747;SDS011;5931;48.832;9.072;2024-03-08T07:30:00;42.35;;;16.58;;
11747;SDS011;5931;48.832;9.072;2024-03-08T07:32:26;38.97;;;16.83;;
11747;SDS011;5931;48.832;9.072;2024-03-08T07:34:55;40.70;;;17.58;;
11747;SDS011;5931;48.832;9.072;2024-03-08T07:37:21;36.80;;;13.88;;
11747;SDS011;5931;48.832;9.072;2024-03-08T07:39:47;43.40;;;17.47;;
11747;SDS011;5931;48.832;9.072;2024-03-08T07:42:13;39.97;;;16.07;;
11747;SDS011;5931;48.832;9.072;2024-03-08T07:44:38;38.53;;;15.70;;
11747;SDS011;5931;48.832;9.072;2024-03-08T07:47:05;27.40;;;14.95;;
11747;SDS011;5931;48.832;9.072;2024-03-08T07:49:34;31.98;;;14.07;;
11747;SDS011;5931;48.832;9.072;2024-03-08T07:52:00;32.60;;;14.60;;
11747;SDS011;5931;48.832;9.072;2024-03-08T07:54:26;26.73;;;13.00;;
11747;SDS011;5931;48.832;9.072;2024-03-08T07:56:52;24.37;;;11.67;;
11747;SDS011;5931;48.832;9.072;2024-03-08T07:59:18;20.70;;;10.90;;
11747;SDS011;5931;48.832;9.072;2024-03-08T08:01:46;24.35;;;11.65;;
11747;SDS011;5931;48.832;9.072;2024-03-08T08:04:12;25.55;;;12.15;;
11747;SDS011;5931;48.832;9.072;2024-03-08T08:06:39;27.05;;;11.93;;
11747;SDS011;5931;48.832;9.072;2024-03-08T08:09:09;21.65;;;11.50;;
11747;SDS011;5931;48.832;9.072;2024-03-08T08:11:41;25.35;;;11.73;;
11747;SDS011;5931;48.832;9.072;2024-03-08T08:14:09;21.50;;;10.90;;
11747;SDS011;5931;48.832;9.072;2024-03-08T08:16:35;22.90;;;10.90;;
11747;SDS011;5931;48.832;9.072;2024-03-08T08:19:02;22.13;;;11.98;;
11747;SDS011;5931;48.832;9.072;2024-03-08T08:21:36;26.45;;;10.00;;
11747;SDS011;5931;48.832;9.072;2024-03-08T08:24:05;25.40;;;11.93;;
11747;SDS011;5931;48.832;9.072;2024-03-08T08:26:31;14.73;;;9.27;;
11747;SDS011;5931;48.832;9.072;2024-03-08T08:28:59;22.10;;;11.00;;
11747;SDS011;5931;48.832;9.072;2024-03-08T08:31:25;23.27;;;10.80;;
11747;SDS011;5931;48.832;9.072;2024-03-08T08:33:51;23.67;;;12.07;;
11747;SDS011;5931;48.832;9.072;2024-03-08T08:36:23;22.10;;;9.98;;
11747;SDS011;5931;48.832;9.072;2024-03-08T08:38:49;23.45;;;11.02;;
11747;SDS011;5931;48.832;9.072;2024-03-08T08:41:15;19.17;;;11.30;;
11747;SDS011;5931;48.832;9.072;2024-03-08T08:43:42;22.50;;;10.35;;
11747;SDS011;5931;48.832;9.072;2024-03-08T08:46:11;25.30;;;10.82;;
11747;SDS011;5931;48.832;9.072;2024-03-08T08:48:41;18.58;;;10.18;;
11747;SDS011;5931;48.832;9.072;2024-03-08T08:51:09;18.50;;;9.35;;
11747;SDS011;5931;48.832;9.072;2024-03-08T08:53:40;20.43;;;9.83;;
11747;SDS011;5931;48.832;9.072;2024-03-08T08:56:10;17.00;;;9.23;;
11747;SDS011;5931;48.832;9.072;2024-03-08T08:58:40;21.95;;;10.35;;
11747;SDS011;5931;48.832;9.072;2024-03-08T09:01:10;17.90;;;10.43;;
11747;SDS011;5931;48.832;9.072;2024-03-08T09:03:39;17.03;;;9.40;;
11747;SDS011;5931;48.832;9.072;2024-03-08T09:06:08;21.43;;;10.90;;
11747;SDS011;5931;48.832;9.072;2024-03-08T09:08:35;19.67;;;10.60;;
11747;SDS011;5931;48.832;9.072;2024-03-08T09:11:02;21.50;;;10.20;;
11747;SDS011;5931;48.832;9.072;2024-03-08T09:13:27;24.57;;;11.13;;
11747;SDS011;5931;48.832;9.072;2024-03-08T09:15:53;21.83;;;10.40;;
11747;SDS011;5931;48.832;9.072;2024-03-08T09:18:19;21.20;;;11.30;;
11747;SDS011;5931;48.832;9.072;2024-03-08T09:20:45;23.23;;;10.30;;
11747;SDS011;5931;48.832;9.072;2024-03-08T09:23:12;18.93;;;10.27;;
11747;SDS011;5931;48.832;9.072;2024-03-08T09:25:38;23.63;;;10.73;;
11747;SDS011;5931;48.832;9.072;2024-03-08T09:28:04;21.80;;;11.07;;
11747;SDS011;5931;48.832;9.072;2024-03-08T09:30:31;24.27;;;10.43;;
11747;SDS011;5931;48.832;9.072;2024-03-08T09:32:56;23.27;;;10.80;;
11747;SDS011;5931;48.832;9.072;2024-03-08T09:35:22;21.40;;;11.80;;
11747;SDS011;5931;48.832;9.072;2024-03-08T09:37:48;19.90;;;10.40;;
11747;SDS011;5931;48.832;9.072;2024-03-08T09:40:16;19.00;;;9.53;;
11747;SDS011;5931;48.832;9.072;2024-03-08T09:42:45;18.20;;;10.17;;
11747;SDS011;5931;48.832;9.072;2024-03-08T09:45:13;21.20;;;9.10;;
11747;SDS011;5931;48.832;9.072;2024-03-08T09:47:41;28.00;;;11.20;;
11747;SDS011;5931;48.832;9.072;2024-03-08T09:50:08;23.87;;;10.07;;
11747;SDS011;5931;48.832;9.072;2024-03-08T09:52:41;21.03;;;10.23;;
11747;SDS011;5931;48.832;9.072;2024-03-08T09:55:11;18.50;;;10.03;;
11747;SDS011;5931;48.832;9.072;2024-03-08T09:57:37;22.63;;;10.60;;
11747;SDS011;5931;48.832;9.072;2024-03-08T10:00:06;20.27;;;9.97;;
11747;SDS011;5931;48.832;9.072;2024-03-08T10:02:45;17.20;;;10.30;;
11747;SDS011;5931;48.832;9.072;2024-03-08T10:05:12;20.30;;;10.10;;
11747;SDS011;5931;48.832;9.072;2024-03-08T10:07:38;16.87;;;9.33;;
11747;SDS011;5931;48.832;9.072;2024-03-08T10:10:04;17.47;;;9.30;;
11747;SDS011;5931;48.832;9.072;2024-03-08T10:12:30;19.37;;;10.73;;
11747;SDS011;5931;48.832;9.072;2024-03-08T10:14:58;20.80;;;10.53;;
11747;SDS011;5931;48.832;9.072;2024-03-08T10:17:24;17.77;;;10.97;;
11747;SDS011;5931;48.832;9.072;2024-03-08T10:19:50;20.10;;;10.50;;
11747;SDS011;5931;48.832;9.072;2024-03-08T10:22:17;22.40;;;10.30;;
11747;SDS011;5931;48.832;9.072;2024-03-08T10:24:47;20.67;;;11.30;;
11747;SDS011;5931;48.832;9.072;2024-03-08T10:27:14;18.50;;;9.43;;
11747;SDS011;5931;48.832;9.072;2024-03-08T10:29:42;15.40;;;9.33;;
11747;SDS011;5931;48.832;9.072;2024-03-08T10:32:09;22.23;;;10.70;;
11747;SDS011;5931;48.832;9.072;2024-03-08T10:34:35;23.20;;;10.77;;
11747;SDS011;5931;48.832;9.072;2024-03-08T10:37:04;20.83;;;11.40;;
11747;SDS011;5931;48.832;9.072;2024-03-08T10:39:34;18.10;;;9.60;;
11747;SDS011;5931;48.832;9.072;2024-03-08T10:42:02;18.53;;;10.30;;
11747;SDS011;5931;48.832;9.072;2024-03-08T10:47:02;23.00;;;10.23;;
11747;SDS011;5931;48.832;9.072;2024-03-08T10:52:50;17.07;;;9.17;;
11747;SDS011;5931;48.832;9.072;2024-03-08T10:55:17;18.70;;;11.30;;
11747;SDS011;5931;48.832;9.072;2024-03-08T10:57:45;16.43;;;8.67;;
11747;SDS011;5931;48.832;9.072;2024-03-08T11:00:14;17.97;;;9.00;;
11747;SDS011;5931;48.832;9.072;2024-03-08T11:02:44;18.90;;;9.30;;
11747;SDS011;5931;48.832;9.072;2024-03-08T11:05:10;16.90;;;9.30;;
11747;SDS011;5931;48.832;9.072;2024-03-08T11:08:01;17.03;;;10.17;;
11747;SDS011;5931;48.832;9.072;2024-03-08T11:10:28;15.83;;;9.20;;
11747;SDS011;5931;48.832;9.072;2024-03-08T11:12:54;16.57;;;9.20;;
11747;SDS011;5931;48.832;9.072;2024-03-08T11:15:20;25.37;;;10.73;;
11747;SDS011;5931;48.832;9.072;2024-03-08T11:17:47;19.43;;;9.50;;
11747;SDS011;5931;48.832;9.072;2024-03-08T11:20:14;14.67;;;9.17;;
11747;SDS011;5931;48.832;9.072;2024-03-08T11:28:06;19.10;;;9.73;;
11747;SDS011;5931;48.832;9.072;2024-03-08T11:30:33;17.70;;;9.30;;
11747;SDS011;5931;48.832;9.072;2024-03-08T11:33:02;17.80;;;10.10;;
11747;SDS011;5931;48.832;9.072;2024-03-08T11:35:28;20.50;;;9.67;;
11747;SDS011;5931;48.832;9.072;2024-03-08T11:37:57;18.60;;;8.90;;
11747;SDS011;5931;48.832;9.072;2024-03-08T11:40:25;17.00;;;9.10;;
11747;SDS011;5931;48.832;9.072;2024-03-08T11:42:51;18.93;;;10.67;;
11747;SDS011;5931;48.832;9.072;2024-03-08T11:45:18;22.53;;;10.63;;
11747;SDS011;5931;48.832;9.072;2024-03-08T11:47:46;16.20;;;9.10;;
11747;SDS011;5931;48.832;9.072;2024-03-08T11:50:12;20.93;;;10.60;;
11747;SDS011;5931;48.832;9.072;2024-03-08T11:52:39;17.13;;;9.50;;
11747;SDS011;5931;48.832;9.072;2024-03-08T11:55:05;19.33;;;10.83;;
11747;SDS011;5931;48.832;9.072;2024-03-08T11:57:32;17.47;;;9.47;;
11747;SDS011;5931;48.832;9.072;2024-03-08T11:59:58;18.47;;;9.37;;
11747;SDS011;5931;48.832;9.072;2024-03-08T12:02:33;19.53;;;8.43;;
11747;SDS011;5931;48.832;9.072;2024-03-08T12:05:03;22.10;;;10.50;;
11747;SDS011;5931;48.832;9.072;2024-03-08T12:07:31;18.10;;;8.97;;
11747;SDS011;5931;48.832;9.072;2024-03-08T12:12:46;21.33;;;11.43;;
11747;SDS011;5931;48.832;9.072;2024-03-08T12:15:16;20.83;;;9.80;;
11747;SDS011;5931;48.832;9.072;2024-03-08T12:17:47;19.40;;;9.30;;
11747;SDS011;5931;48.832;9.072;2024-03-08T12:20:15;16.03;;;8.70;;
11747;SDS011;5931;48.832;9.072;2024-03-08T12:22:43;21.53;;;9.87;;
11747;SDS011;5931;48.832;9.072;2024-03-08T12:25:12;19.03;;;10.50;;
11747;SDS011;5931;48.832;9.072;2024-03-08T12:27:42;14.67;;;9.50;;
11747;SDS011;5931;48.832;9.072;2024-03-08T12:30:18;20.63;;;10.90;;
11747;SDS011;5931;48.832;9.072;2024-03-08T12:33:07;16.97;;;9.20;;
11747;SDS011;5931;48.832;9.072;2024-03-08T12:35:35;17.87;;;8.50;;
11747;SDS011;5931;48.832;9.072;2024-03-08T12:38:02;19.70;;;9.33;;
11747;SDS011;5931;48.832;9.072;2024-03-08T12:40:29;24.77;;;9.57;;
11747;SDS011;5931;48.832;9.072;2024-03-08T12:42:57;22.50;;;11.23;;
11747;SDS011;5931;48.832;9.072;2024-03-08T12:45:24;23.37;;;10.13;;
11747;SDS011;5931;48.832;9.072;2024-03-08T12:47:50;19.60;;;9.70;;
11747;SDS011;5931;48.832;9.072;2024-03-08T12:50:18;17.90;;;9.10;;
11747;SDS011;5931;48.832;9.072;2024-03-08T12:52:48;16.30;;;8.57;;
11747;SDS011;5931;48.832;9.072;2024-03-08T12:55:14;18.80;;;9.47;;
11747;SDS011;5931;48.832;9.072;2024-03-08T12:57:43;22.50;;;10.00;;
11747;SDS011;5931;48.832;9.072;2024-03-08T13:00:10;22.17;;;11.40;;
11747;SDS011;5931;48.832;9.072;2024-03-08T13:02:47;22.80;;;10.43;;
11747;SDS011;5931;48.832;9.072;2024-03-08T13:05:13;20.87;;;8.97;;
11747;SDS011;5931;48.832;9.072;2024-03-08T13:07:40;18.33;;;9.00;;
11747;SDS011;5931;48.832;9.072;2024-03-08T13:10:11;27.40;;;11.03;;
11747;SDS011;5931;48.832;9.072;2024-03-08T13:12:42;21.67;;;10.13;;
11747;SDS011;5931;48.832;9.072;2024-03-08T13:15:08;24.03;;;11.27;;
11747;SDS011;5931;48.832;9.072;2024-03-08T13:17:45;19.00;;;9.90;;
11747;SDS011;5931;48.832;9.072;2024-03-08T13:20:14;23.90;;;10.73;;
11747;SDS011;5931;48.832;9.072;2024-03-08T13:22:45;26.33;;;10.60;;
11747;SDS011;5931;48.832;9.072;2024-03-08T13:25:12;18.17;;;9.83;;
11747;SDS011;5931;48.832;9.072;2024-03-08T13:27:39;26.13;;;10.60;;
11747;SDS011;5931;48.832;9.072;2024-03-08T13:30:06;24.00;;;10.57;;
11747;SDS011;5931;48.832;9.072;2024-03-08T13:32:33;24.90;;;10.20;;
11747;SDS011;5931;48.832;9.072;2024-03-08T13:34:59;20.97;;;10.00;;
11747;SDS011;5931;48.832;9.072;2024-03-08T13:37:24;24.80;;;9.70;;
11747;SDS011;5931;48.832;9.072;2024-03-08T13:39:50;21.43;;;10.60;;
11747;SDS011;5931;48.832;9.072;2024-03-08T13:42:16;26.53;;;10.83;;
11747;SDS011;5931;48.832;9.072;2024-03-08T13:47:14;20.70;;;9.73;;
11747;SDS011;5931;48.832;9.072;2024-03-08T13:49:44;18.70;;;9.10;;
11747;SDS011;5931;48.832;9.072;2024-03-08T13:52:10;20.13;;;10.50;;
11747;SDS011;5931;48.832;9.072;2024-03-08T13:54:37;19.93;;;11.60;;
11747;SDS011;5931;48.832;9.072;2024-03-08T13:57:03;19.53;;;10.03;;
11747;SDS011;5931;48.832;9.072;2024-03-08T13:59:33;21.23;;;9.67;;
11747;SDS011;5931;48.832;9.072;2024-03-08T14:02:03;14.43;;;8.47;;
11747;SDS011;5931;48.832;9.072;2024-03-08T14:04:29;22.87;;;10.73;;
11747;SDS011;5931;48.832;9.072;2024-03-08T14:06:55;19.60;;;10.67;;
11747;SDS011;5931;48.832;9.072;2024-03-08T14:09:29;25.37;;;10.73;;
11747;SDS011;5931;48.832;9.072;2024-03-08T14:11:56;20.23;;;10.20;;
11747;SDS011;5931;48.832;9.072;2024-03-08T14:14:23;16.93;;;10.23;;
11747;SDS011;5931;48.832;9.072;2024-03-08T14:16:49;24.83;;;10.63;;
11747;SDS011;5931;48.832;9.072;2024-03-08T14:19:18;19.60;;;9.67;;
11747;SDS011;5931;48.832;9.072;2024-03-08T14:21:44;22.67;;;10.20;;
11747;SDS011;5931;48.832;9.072;2024-03-08T14:24:10;19.20;;;9.33;;
11747;SDS011;5931;48.832;9.072;2024-03-08T14:26:36;21.23;;;9.90;;
11747;SDS011;5931;48.832;9.072;2024-03-08T14:29:04;22.43;;;10.77;;
11747;SDS011;5931;48.832;9.072;2024-03-08T14:31:30;19.63;;;8.80;;
11747;SDS011;5931;48.832;9.072;2024-03-08T14:33:56;22.83;;;11.73;;
11747;SDS011;5931;48.832;9.072;2024-03-08T14:36:24;19.90;;;10.00;;
11747;SDS011;5931;48.832;9.072;2024-03-08T14:38:53;17.43;;;8.77;;
11747;SDS011;5931;48.832;9.072;2024-03-08T14:41:19;20.90;;;10.30;;
11747;SDS011;5931;48.832;9.072;2024-03-08T14:43:45;20.50;;;9.47;;
11747;SDS011;5931;48.832;9.072;2024-03-08T14:46:13;22.80;;;11.40;;
11747;SDS011;5931;48.832;9.072;2024-03-08T14:48:45;24.40;;;10.40;;
11747;SDS011;5931;48.832;9.072;2024-03-08T14:51:12;19.47;;;9.13;;
11747;SDS011;5931;48.832;9.072;2024-03-08T14:53:42;18.23;;;9.70;;